sensor_id;sensor_type;location;lat;lon;timestamp;P1;durP1;ratioP1;P2;durP2;ratioP2
75858;SDS011;64504;51.308;8.620;2023-04-01T00:00:16;0.20;;;0.20;;
75858;SDS011;64504;51.308;8.620;2023-04-01T00:02:42;0.70;;;0.70;;
75858;SDS011;64504;51.308;8.620;2023-04-01T00:05:08;0.60;;;0.60;;
75858;SDS011;64504;51.308;8.620;2023-04-01T00:07:35;2.50;;;0.82;;
75858;SDS011;64504;51.308;8.620;2023-04-01T00:10:02;3.63;;;0.68;;
75858;SDS011;64504;51.308;8.620;2023-04-01T00:12:31;3.10;;;0.95;;
75858;SDS011;64504;51.308;8.620;2023-04-01T00:14:57;1.25;;;0.88;;
75858;SDS011;64504;51.308;8.620;2023-04-01T00:17:22;2.90;;;0.80;;
75858;SDS011;64504;51.308;8.620;2023-04-01T00:19:48;1.45;;;0.52;;
75858;SDS011;64504;51.308;8.620;2023-04-01T00:22:13;0.40;;;0.40;;
75858;SDS011;64504;51.308;8.620;2023-04-01T00:24:39;2.08;;;1.23;;
75858;SDS011;64504;51.308;8.620;2023-04-01T00:27:05;1.30;;;0.63;;
75858;SDS011;64504;51.308;8.620;2023-04-01T00:29:30;1.40;;;0.60;;
75858;SDS011;64504;51.308;8.620;2023-04-01T00:31:57;0.45;;;0.45;;
75858;SDS011;64504;51.308;8.620;2023-04-01T00:34:22;0.80;;;0.80;;
75858;SDS011;64504;51.308;8.620;2023-04-01T00:36:49;0.50;;;0.50;;
75858;SDS011;64504;51.308;8.620;2023-04-01T00:39:15;0.40;;;0.40;;
75858;SDS011;64504;51.308;8.620;2023-04-01T00:41:41;0.40;;;0.40;;
75858;SDS011;64504;51.308;8.620;2023-04-01T00:44:17;0.30;;;0.30;;
75858;SDS011;64504;51.308;8.620;2023-04-01T00:46:48;0.32;;;0.32;;
75858;SDS011;64504;51.308;8.620;2023-04-01T00:49:15;0.28;;;0.28;;
75858;SDS011;64504;51.308;8.620;2023-04-01T00:51:44;1.20;;;0.70;;
75858;SDS011;64504;51.308;8.620;2023-04-01T00:54:11;0.52;;;0.52;;
75858;SDS011;64504;51.308;8.620;2023-04-01T00:56:37;0.32;;;0.32;;
75858;SDS011;64504;51.308;8.620;2023-04-01T00:59:07;0.45;;;0.45;;
75858;SDS011;64504;51.308;8.620;2023-04-01T01:01:36;2.05;;;0.55;;
75858;SDS011;64504;51.308;8.620;2023-04-01T01:04:02;2.20;;;0.93;;
75858;SDS011;64504;51.308;8.620;2023-04-01T01:06:46;0.30;;;0.30;;
75858;SDS011;64504;51.308;8.620;2023-04-01T01:09:28;1.23;;;0.57;;
75858;SDS011;64504;51.308;8.620;2023-04-01T01:12:30;0.32;;;0.32;;
75858;SDS011;64504;51.308;8.620;2023-04-01T01:14:53;0.63;;;0.55;;
75858;SDS011;64504;51.308;8.620;2023-04-01T01:31:32;0.57;;;0.57;;
75858;SDS011;64504;51.308;8.620;2023-04-01T01:36:36;0.47;;;0.47;;
75858;SDS011;64504;51.308;8.620;2023-04-01T01:39:04;0.50;;;0.50;;
75858;SDS011;64504;51.308;8.620;2023-04-01T01:41:34;0.40;;;0.40;;
75858;SDS011;64504;51.308;8.620;2023-04-01T01:44:02;0.50;;;0.50;;
75858;SDS011;64504;51.308;8.620;2023-04-01T01:46:30;0.75;;;0.52;;
75858;SDS011;64504;51.308;8.620;2023-04-01T01:48:56;0.40;;;0.40;;
75858;SDS011;64504;51.308;8.620;2023-04-01T01:51:22;0.57;;;0.57;;
75858;SDS011;64504;51.308;8.620;2023-04-01T01:53:49;2.83;;;0.95;;
75858;SDS011;64504;51.308;8.620;2023-04-01T01:56:17;0.32;;;0.32;;
75858;SDS011;64504;51.308;8.620;2023-04-01T01:58:44;2.28;;;0.70;;
75858;SDS011;64504;51.308;8.620;2023-04-01T02:01:14;0.30;;;0.30;;
75858;SDS011;64504;51.308;8.620;2023-04-01T02:03:43;0.47;;;0.47;;
75858;SDS011;64504;51.308;8.620;2023-04-01T02:06:11;0.43;;;0.43;;
75858;SDS011;64504;51.308;8.620;2023-04-01T02:11:18;0.63;;;0.28;;
75858;SDS011;64504;51.308;8.620;2023-04-01T02:13:54;0.55;;;0.52;;
75858;SDS011;64504;51.308;8.620;2023-04-01T02:16:26;0.63;;;0.32;;
75858;SDS011;64504;51.308;8.620;2023-04-01T02:18:55;0.20;;;0.20;;
75858;SDS011;64504;51.308;8.620;2023-04-01T02:21:22;0.32;;;0.32;;
75858;SDS011;64504;51.308;8.620;2023-04-01T02:23:50;0.45;;;0.30;;
75858;SDS011;64504;51.308;8.620;2023-04-01T02:26:17;0.52;;;0.52;;
75858;SDS011;64504;51.308;8.620;2023-04-01T02:28:42;0.30;;;0.30;;
75858;SDS011;64504;51.308;8.620;2023-04-01T02:31:09;0.25;;;0.25;;
75858;SDS011;64504;51.308;8.620;2023-04-01T02:33:36;0.40;;;0.40;;
75858;SDS011;64504;51.308;8.620;2023-04-01T02:36:03;0.32;;;0.32;;
75858;SDS011;64504;51.308;8.620;2023-04-01T02:38:29;1.05;;;0.55;;
75858;SDS011;64504;51.308;8.620;2023-04-01T02:40:59;2.60;;;0.80;;
75858;SDS011;64504;51.308;8.620;2023-04-01T02:43:26;0.43;;;0.43;;
75858;SDS011;64504;51.308;8.620;2023-04-01T02:45:51;0.65;;;0.40;;
75858;SDS011;64504;51.308;8.620;2023-04-01T02:48:17;0.55;;;0.32;;
75858;SDS011;64504;51.308;8.620;2023-04-01T02:50:42;0.38;;;0.38;;
75858;SDS011;64504;51.308;8.620;2023-04-01T02:53:08;1.10;;;0.40;;
75858;SDS011;64504;51.308;8.620;2023-04-01T02:55:33;0.30;;;0.30;;
75858;SDS011;64504;51.308;8.620;2023-04-01T02:57:59;0.20;;;0.20;;
75858;SDS011;64504;51.308;8.620;2023-04-01T03:00:25;3.20;;;0.63;;
75858;SDS011;64504;51.308;8.620;2023-04-01T03:02:51;0.40;;;0.40;;
75858;SDS011;64504;51.308;8.620;2023-04-01T03:05:17;1.85;;;0.40;;
75858;SDS011;64504;51.308;8.620;2023-04-01T03:07:42;0.50;;;0.50;;
75858;SDS011;64504;51.308;8.620;2023-04-01T03:10:08;0.40;;;0.40;;
75858;SDS011;64504;51.308;8.620;2023-04-01T03:12:34;0.98;;;0.47;;
75858;SDS011;64504;51.308;8.620;2023-04-01T03:15:00;0.30;;;0.30;;
75858;SDS011;64504;51.308;8.620;2023-04-01T03:17:26;0.73;;;0.50;;
75858;SDS011;64504;51.308;8.620;2023-04-01T03:19:52;0.40;;;0.32;;
75858;SDS011;64504;51.308;8.620;2023-04-01T03:22:17;0.32;;;0.32;;
75858;SDS011;64504;51.308;8.620;2023-04-01T03:24:46;3.47;;;0.65;;
75858;SDS011;64504;51.308;8.620;2023-04-01T03:27:12;0.25;;;0.25;;
75858;SDS011;64504;51.308;8.620;2023-04-01T03:29:37;0.20;;;0.20;;
75858;SDS011;64504;51.308;8.620;2023-04-01T03:32:02;0.40;;;0.40;;
75858;SDS011;64504;51.308;8.620;2023-04-01T03:34:28;0.20;;;0.20;;
75858;SDS011;64504;51.308;8.620;2023-04-01T03:36:53;0.35;;;0.35;;
75858;SDS011;64504;51.308;8.620;2023-04-01T03:39:19;0.50;;;0.50;;
75858;SDS011;64504;51.308;8.620;2023-04-01T03:41:45;0.38;;;0.35;;
75858;SDS011;64504;51.308;8.620;2023-04-01T03:44:11;0.30;;;0.30;;
75858;SDS011;64504;51.308;8.620;2023-04-01T03:46:37;0.20;;;0.20;;
75858;SDS011;64504;51.308;8.620;2023-04-01T03:49:02;0.30;;;0.30;;
75858;SDS011;64504;51.308;8.620;2023-04-01T03:51:37;0.40;;;0.40;;
75858;SDS011;64504;51.308;8.620;2023-04-01T03:54:04;0.38;;;0.38;;
75858;SDS011;64504;51.308;8.620;2023-04-01T03:56:31;0.55;;;0.55;;
75858;SDS011;64504;51.308;8.620;2023-04-01T03:58:57;0.45;;;0.45;;
75858;SDS011;64504;51.308;8.620;2023-04-01T04:01:22;2.90;;;0.50;;
75858;SDS011;64504;51.308;8.620;2023-04-01T04:03:48;0.45;;;0.45;;
75858;SDS011;64504;51.308;8.620;2023-04-01T04:06:15;0.60;;;0.60;;
75858;SDS011;64504;51.308;8.620;2023-04-01T04:08:42;0.60;;;0.50;;
75858;SDS011;64504;51.308;8.620;2023-04-01T04:11:08;0.30;;;0.30;;
75858;SDS011;64504;51.308;8.620;2023-04-01T04:13:35;0.22;;;0.22;;
75858;SDS011;64504;51.308;8.620;2023-04-01T04:16:01;0.30;;;0.30;;
75858;SDS011;64504;51.308;8.620;2023-04-01T04:18:27;0.30;;;0.30;;
75858;SDS011;64504;51.308;8.620;2023-04-01T04:21:04;0.20;;;0.20;;
75858;SDS011;64504;51.308;8.620;2023-04-01T04:23:29;0.30;;;0.30;;
75858;SDS011;64504;51.308;8.620;2023-04-01T04:26:01;0.65;;;0.38;;
75858;SDS011;64504;51.308;8.620;2023-04-01T04:28:28;0.38;;;0.38;;
75858;SDS011;64504;51.308;8.620;2023-04-01T04:30:54;0.50;;;0.50;;
75858;SDS011;64504;51.308;8.620;2023-04-01T04:33:20;1.30;;;0.63;;
75858;SDS011;64504;51.308;8.620;2023-04-01T04:35:48;1.10;;;0.40;;
75858;SDS011;64504;51.308;8.620;2023-04-01T04:38:14;0.40;;;0.40;;
75858;SDS011;64504;51.308;8.620;2023-04-01T04:40:40;0.40;;;0.40;;
75858;SDS011;64504;51.308;8.620;2023-04-01T04:43:06;0.40;;;0.40;;
75858;SDS011;64504;51.308;8.620;2023-04-01T04:45:31;0.55;;;0.55;;
75858;SDS011;64504;51.308;8.620;2023-04-01T04:47:58;0.30;;;0.30;;
75858;SDS011;64504;51.308;8.620;2023-04-01T04:50:23;0.52;;;0.52;;
75858;SDS011;64504;51.308;8.620;2023-04-01T04:52:51;0.63;;;0.30;;
75858;SDS011;64504;51.308;8.620;2023-04-01T04:55:17;2.05;;;0.65;;
75858;SDS011;64504;51.308;8.620;2023-04-01T04:57:42;0.30;;;0.30;;
75858;SDS011;64504;51.308;8.620;2023-04-01T05:00:08;0.43;;;0.35;;
75858;SDS011;64504;51.308;8.620;2023-04-01T05:02:35;0.30;;;0.30;;
75858;SDS011;64504;51.308;8.620;2023-04-01T05:05:00;0.40;;;0.40;;
75858;SDS011;64504;51.308;8.620;2023-04-01T05:07:26;0.95;;;0.73;;
75858;SDS011;64504;51.308;8.620;2023-04-01T05:09:51;0.52;;;0.45;;
75858;SDS011;64504;51.308;8.620;2023-04-01T05:12:17;0.52;;;0.52;;
75858;SDS011;64504;51.308;8.620;2023-04-01T05:14:42;0.32;;;0.32;;
75858;SDS011;64504;51.308;8.620;2023-04-01T05:17:09;0.20;;;0.20;;
75858;SDS011;64504;51.308;8.620;2023-04-01T05:19:36;0.35;;;0.35;;
75858;SDS011;64504;51.308;8.620;2023-04-01T05:22:02;0.20;;;0.20;;
75858;SDS011;64504;51.308;8.620;2023-04-01T05:24:28;0.30;;;0.30;;
75858;SDS011;64504;51.308;8.620;2023-04-01T05:26:57;0.20;;;0.20;;
75858;SDS011;64504;51.308;8.620;2023-04-01T05:29:30;0.22;;;0.22;;
75858;SDS011;64504;51.308;8.620;2023-04-01T05:31:56;0.20;;;0.20;;
75858;SDS011;64504;51.308;8.620;2023-04-01T05:34:22;0.40;;;0.22;;
75858;SDS011;64504;51.308;8.620;2023-04-01T05:36:47;0.30;;;0.30;;
75858;SDS011;64504;51.308;8.620;2023-04-01T05:39:13;1.25;;;0.40;;
75858;SDS011;64504;51.308;8.620;2023-04-01T05:41:39;0.17;;;0.17;;
75858;SDS011;64504;51.308;8.620;2023-04-01T05:44:05;0.30;;;0.30;;
75858;SDS011;64504;51.308;8.620;2023-04-01T05:46:31;0.20;;;0.20;;
75858;SDS011;64504;51.308;8.620;2023-04-01T05:48:57;0.30;;;0.30;;
75858;SDS011;64504;51.308;8.620;2023-04-01T05:51:22;0.20;;;0.20;;
75858;SDS011;64504;51.308;8.620;2023-04-01T05:53:48;0.30;;;0.30;;
75858;SDS011;64504;51.308;8.620;2023-04-01T05:56:13;0.40;;;0.40;;
75858;SDS011;64504;51.308;8.620;2023-04-01T05:58:39;0.25;;;0.25;;
75858;SDS011;64504;51.308;8.620;2023-04-01T06:01:10;0.17;;;0.17;;
75858;SDS011;64504;51.308;8.620;2023-04-01T06:03:36;3.50;;;0.38;;
75858;SDS011;64504;51.308;8.620;2023-04-01T06:06:01;1.58;;;0.32;;
75858;SDS011;64504;51.308;8.620;2023-04-01T06:08:27;0.40;;;0.40;;
75858;SDS011;64504;51.308;8.620;2023-04-01T06:11:00;0.10;;;0.10;;
75858;SDS011;64504;51.308;8.620;2023-04-01T06:21:56;0.30;;;0.30;;
75858;SDS011;64504;51.308;8.620;2023-04-01T06:24:31;0.30;;;0.30;;
75858;SDS011;64504;51.308;8.620;2023-04-01T06:27:12;0.52;;;0.40;;
75858;SDS011;64504;51.308;8.620;2023-04-01T06:32:39;0.35;;;0.35;;
75858;SDS011;64504;51.308;8.620;2023-04-01T06:35:45;0.57;;;0.57;;
75858;SDS011;64504;51.308;8.620;2023-04-01T06:38:26;0.10;;;0.10;;
75858;SDS011;64504;51.308;8.620;2023-04-01T06:41:23;0.25;;;0.25;;
75858;SDS011;64504;51.308;8.620;2023-04-01T06:52:32;0.30;;;0.30;;
75858;SDS011;64504;51.308;8.620;2023-04-01T06:55:37;0.22;;;0.22;;
75858;SDS011;64504;51.308;8.620;2023-04-01T06:58:06;0.28;;;0.28;;
75858;SDS011;64504;51.308;8.620;2023-04-01T07:00:39;0.30;;;0.30;;
75858;SDS011;64504;51.308;8.620;2023-04-01T07:03:18;0.30;;;0.30;;
75858;SDS011;64504;51.308;8.620;2023-04-01T07:05:47;0.40;;;0.40;;
75858;SDS011;64504;51.308;8.620;2023-04-01T07:08:14;0.38;;;0.38;;
75858;SDS011;64504;51.308;8.620;2023-04-01T07:13:13;0.38;;;0.38;;
75858;SDS011;64504;51.308;8.620;2023-04-01T07:15:46;0.40;;;0.40;;
75858;SDS011;64504;51.308;8.620;2023-04-01T07:18:41;0.40;;;0.40;;
75858;SDS011;64504;51.308;8.620;2023-04-01T07:21:08;0.30;;;0.30;;
75858;SDS011;64504;51.308;8.620;2023-04-01T07:23:39;0.40;;;0.40;;
75858;SDS011;64504;51.308;8.620;2023-04-01T07:26:15;0.25;;;0.25;;
75858;SDS011;64504;51.308;8.620;2023-04-01T07:28:42;0.20;;;0.20;;
75858;SDS011;64504;51.308;8.620;2023-04-01T07:34:12;0.15;;;0.15;;
75858;SDS011;64504;51.308;8.620;2023-04-01T07:37:17;0.43;;;0.43;;
75858;SDS011;64504;51.308;8.620;2023-04-01T07:42:51;0.40;;;0.40;;
75858;SDS011;64504;51.308;8.620;2023-04-01T07:45:44;0.30;;;0.30;;
75858;SDS011;64504;51.308;8.620;2023-04-01T07:48:47;0.70;;;0.57;;
75858;SDS011;64504;51.308;8.620;2023-04-01T07:51:20;0.30;;;0.30;;
75858;SDS011;64504;51.308;8.620;2023-04-01T08:05:33;0.28;;;0.28;;
75858;SDS011;64504;51.308;8.620;2023-04-01T08:11:12;0.68;;;0.57;;
75858;SDS011;64504;51.308;8.620;2023-04-01T08:22:14;0.30;;;0.30;;
75858;SDS011;64504;51.308;8.620;2023-04-01T08:24:44;0.20;;;0.20;;
75858;SDS011;64504;51.308;8.620;2023-04-01T08:27:16;0.60;;;0.52;;
75858;SDS011;64504;51.308;8.620;2023-04-01T08:29:59;0.32;;;0.32;;
75858;SDS011;64504;51.308;8.620;2023-04-01T08:35:41;0.43;;;0.43;;
75858;SDS011;64504;51.308;8.620;2023-04-01T08:38:14;0.30;;;0.30;;
75858;SDS011;64504;51.308;8.620;2023-04-01T08:49:32;0.50;;;0.50;;
75858;SDS011;64504;51.308;8.620;2023-04-01T08:52:15;0.63;;;0.63;;
75858;SDS011;64504;51.308;8.620;2023-04-01T08:57:25;2.17;;;0.63;;
75858;SDS011;64504;51.308;8.620;2023-04-01T09:02:45;3.25;;;0.45;;
75858;SDS011;64504;51.308;8.620;2023-04-01T09:11:19;0.75;;;0.70;;
75858;SDS011;64504;51.308;8.620;2023-04-01T09:14:13;0.40;;;0.40;;
75858;SDS011;64504;51.308;8.620;2023-04-01T09:27:28;0.30;;;0.30;;
75858;SDS011;64504;51.308;8.620;2023-04-01T09:30:06;0.52;;;0.38;;
75858;SDS011;64504;51.308;8.620;2023-04-01T09:38:14;0.30;;;0.30;;
75858;SDS011;64504;51.308;8.620;2023-04-01T09:51:49;0.40;;;0.40;;
75858;SDS011;64504;51.308;8.620;2023-04-01T09:54:44;0.22;;;0.22;;
75858;SDS011;64504;51.308;8.620;2023-04-01T10:22:48;0.52;;;0.52;;
75858;SDS011;64504;51.308;8.620;2023-04-01T10:25:32;2.22;;;0.90;;
75858;SDS011;64504;51.308;8.620;2023-04-01T10:31:13;0.50;;;0.50;;
75858;SDS011;64504;51.308;8.620;2023-04-01T10:36:56;0.22;;;0.22;;
75858;SDS011;64504;51.308;8.620;2023-04-01T10:39:33;0.22;;;0.22;;
75858;SDS011;64504;51.308;8.620;2023-04-01T11:06:38;1.95;;;1.10;;
75858;SDS011;64504;51.308;8.620;2023-04-01T11:34:56;0.95;;;0.85;;
75858;SDS011;64504;51.308;8.620;2023-04-01T11:37:44;0.32;;;0.32;;
75858;SDS011;64504;51.308;8.620;2023-04-01T11:45:35;0.55;;;0.55;;
75858;SDS011;64504;51.308;8.620;2023-04-01T11:53:29;1.63;;;0.88;;
75858;SDS011;64504;51.308;8.620;2023-04-01T12:01:18;0.52;;;0.52;;
75858;SDS011;64504;51.308;8.620;2023-04-01T12:12:12;0.75;;;0.63;;
75858;SDS011;64504;51.308;8.620;2023-04-01T12:17:53;0.45;;;0.45;;
75858;SDS011;64504;51.308;8.620;2023-04-01T12:25:53;0.35;;;0.28;;
75858;SDS011;64504;51.308;8.620;2023-04-01T12:34:40;0.43;;;0.43;;
75858;SDS011;64504;51.308;8.620;2023-04-01T12:37:18;0.77;;;0.70;;
75858;SDS011;64504;51.308;8.620;2023-04-01T12:39:57;0.40;;;0.40;;
75858;SDS011;64504;51.308;8.620;2023-04-01T12:48:06;0.30;;;0.30;;
75858;SDS011;64504;51.308;8.620;2023-04-01T12:53:42;0.60;;;0.30;;
75858;SDS011;64504;51.308;8.620;2023-04-01T12:59:22;0.40;;;0.40;;
75858;SDS011;64504;51.308;8.620;2023-04-01T13:24:09;0.80;;;0.63;;
75858;SDS011;64504;51.308;8.620;2023-04-01T13:26:55;4.78;;;0.85;;
75858;SDS011;64504;51.308;8.620;2023-04-01T13:29:32;1.15;;;0.75;;
75858;SDS011;64504;51.308;8.620;2023-04-01T13:45:24;0.50;;;0.50;;
75858;SDS011;64504;51.308;8.620;2023-04-01T13:56:02;0.52;;;0.52;;
75858;SDS011;64504;51.308;8.620;2023-04-01T13:58:49;0.47;;;0.47;;
75858;SDS011;64504;51.308;8.620;2023-04-01T14:04:58;0.50;;;0.50;;
75858;SDS011;64504;51.308;8.620;2023-04-01T14:21:12;0.50;;;0.50;;
75858;SDS011;64504;51.308;8.620;2023-04-01T14:32:44;0.40;;;0.40;;
75858;SDS011;64504;51.308;8.620;2023-04-01T14:40:55;0.40;;;0.40;;
75858;SDS011;64504;51.308;8.620;2023-04-01T15:00:21;1.17;;;0.30;;
75858;SDS011;64504;51.308;8.620;2023-04-01T15:05:52;0.63;;;0.63;;
75858;SDS011;64504;51.308;8.620;2023-04-01T15:08:44;0.30;;;0.30;;
75858;SDS011;64504;51.308;8.620;2023-04-01T15:14:37;0.55;;;0.50;;
75858;SDS011;64504;51.308;8.620;2023-04-01T15:20:02;1.50;;;0.65;;
75858;SDS011;64504;51.308;8.620;2023-04-01T15:22:45;0.38;;;0.38;;
75858;SDS011;64504;51.308;8.620;2023-04-01T15:27:50;0.50;;;0.50;;
75858;SDS011;64504;51.308;8.620;2023-04-01T15:39:00;1.67;;;0.98;;
75858;SDS011;64504;51.308;8.620;2023-04-01T15:41:46;1.35;;;1.00;;
75858;SDS011;64504;51.308;8.620;2023-04-01T15:44:33;1.27;;;1.17;;
75858;SDS011;64504;51.308;8.620;2023-04-01T16:07:42;1.02;;;0.90;;
75858;SDS011;64504;51.308;8.620;2023-04-01T16:15:24;1.42;;;0.98;;
75858;SDS011;64504;51.308;8.620;2023-04-01T16:18:09;0.93;;;0.88;;
75858;SDS011;64504;51.308;8.620;2023-04-01T16:44:32;0.70;;;0.60;;
75858;SDS011;64504;51.308;8.620;2023-04-01T16:47:14;0.70;;;0.70;;
75858;SDS011;64504;51.308;8.620;2023-04-01T16:50:06;0.98;;;0.88;;
75858;SDS011;64504;51.308;8.620;2023-04-01T16:52:54;0.65;;;0.65;;
75858;SDS011;64504;51.308;8.620;2023-04-01T16:58:27;1.10;;;0.88;;
75858;SDS011;64504;51.308;8.620;2023-04-01T17:01:13;0.70;;;0.70;;
75858;SDS011;64504;51.308;8.620;2023-04-01T17:03:46;0.73;;;0.73;;
75858;SDS011;64504;51.308;8.620;2023-04-01T17:09:02;0.63;;;0.60;;
75858;SDS011;64504;51.308;8.620;2023-04-01T17:14:32;3.97;;;2.30;;
75858;SDS011;64504;51.308;8.620;2023-04-01T17:17:24;0.98;;;0.98;;
75858;SDS011;64504;51.308;8.620;2023-04-01T17:19:55;0.90;;;0.90;;
75858;SDS011;64504;51.308;8.620;2023-04-01T17:23:14;1.10;;;0.52;;
75858;SDS011;64504;51.308;8.620;2023-04-01T17:36:40;0.95;;;0.90;;
75858;SDS011;64504;51.308;8.620;2023-04-01T17:44:32;7.30;;;5.00;;
75858;SDS011;64504;51.308;8.620;2023-04-01T17:47:22;1.27;;;0.75;;
75858;SDS011;64504;51.308;8.620;2023-04-01T18:01:11;0.28;;;0.28;;
75858;SDS011;64504;51.308;8.620;2023-04-01T18:07:06;0.82;;;0.65;;
75858;SDS011;64504;51.308;8.620;2023-04-01T18:09:57;1.42;;;1.27;;
75858;SDS011;64504;51.308;8.620;2023-04-01T18:26:10;0.65;;;0.60;;
75858;SDS011;64504;51.308;8.620;2023-04-01T18:28:40;0.70;;;0.70;;
75858;SDS011;64504;51.308;8.620;2023-04-01T18:33:45;1.35;;;1.23;;
75858;SDS011;64504;51.308;8.620;2023-04-01T18:39:16;0.85;;;0.85;;
75858;SDS011;64504;51.308;8.620;2023-04-01T18:41:59;1.33;;;1.23;;
75858;SDS011;64504;51.308;8.620;2023-04-01T18:44:49;3.35;;;2.00;;
75858;SDS011;64504;51.308;8.620;2023-04-01T18:53:28;1.73;;;1.48;;
75858;SDS011;64504;51.308;8.620;2023-04-01T18:55:59;1.35;;;1.25;;
75858;SDS011;64504;51.308;8.620;2023-04-01T18:58:33;2.30;;;1.70;;
75858;SDS011;64504;51.308;8.620;2023-04-01T19:06:17;5.60;;;1.85;;
75858;SDS011;64504;51.308;8.620;2023-04-01T19:08:47;1.60;;;1.42;;
75858;SDS011;64504;51.308;8.620;2023-04-01T19:30:16;2.03;;;1.48;;
75858;SDS011;64504;51.308;8.620;2023-04-01T19:32:58;1.73;;;1.33;;
75858;SDS011;64504;51.308;8.620;2023-04-01T19:35:49;1.27;;;1.20;;
75858;SDS011;64504;51.308;8.620;2023-04-01T19:41:01;1.13;;;1.02;;
75858;SDS011;64504;51.308;8.620;2023-04-01T19:46:26;1.58;;;1.48;;
75858;SDS011;64504;51.308;8.620;2023-04-01T19:54:38;1.70;;;1.45;;
75858;SDS011;64504;51.308;8.620;2023-04-01T19:57:17;1.40;;;1.30;;
75858;SDS011;64504;51.308;8.620;2023-04-01T19:59:59;1.75;;;1.55;;
75858;SDS011;64504;51.308;8.620;2023-04-01T20:02:50;2.22;;;1.65;;
75858;SDS011;64504;51.308;8.620;2023-04-01T20:05:40;2.03;;;1.88;;
75858;SDS011;64504;51.308;8.620;2023-04-01T20:08:33;1.38;;;1.27;;
75858;SDS011;64504;51.308;8.620;2023-04-01T20:16:21;1.38;;;1.27;;
75858;SDS011;64504;51.308;8.620;2023-04-01T20:18:57;3.10;;;2.28;;
75858;SDS011;64504;51.308;8.620;2023-04-01T20:53:30;2.10;;;1.90;;
75858;SDS011;64504;51.308;8.620;2023-04-01T20:56:14;6.93;;;2.15;;
75858;SDS011;64504;51.308;8.620;2023-04-01T21:13:01;4.20;;;3.90;;
75858;SDS011;64504;51.308;8.620;2023-04-01T21:18:09;2.88;;;1.95;;
75858;SDS011;64504;51.308;8.620;2023-04-01T21:28:28;2.55;;;2.13;;
75858;SDS011;64504;51.308;8.620;2023-04-01T21:31:06;3.92;;;2.92;;
75858;SDS011;64504;51.308;8.620;2023-04-01T21:45:07;4.88;;;4.07;;
75858;SDS011;64504;51.308;8.620;2023-04-01T21:50:25;3.38;;;3.05;;
75858;SDS011;64504;51.308;8.620;2023-04-01T21:53:09;6.78;;;4.03;;
75858;SDS011;64504;51.308;8.620;2023-04-01T22:07:12;4.47;;;4.07;;
75858;SDS011;64504;51.308;8.620;2023-04-01T22:12:17;5.03;;;3.50;;
75858;SDS011;64504;51.308;8.620;2023-04-01T22:17:32;6.03;;;4.35;;
75858;SDS011;64504;51.308;8.620;2023-04-01T22:28:03;4.45;;;4.05;;
75858;SDS011;64504;51.308;8.620;2023-04-01T22:30:39;3.08;;;2.20;;
75858;SDS011;64504;51.308;8.620;2023-04-01T22:41:39;0.43;;;0.43;;
75858;SDS011;64504;51.308;8.620;2023-04-01T22:55:10;2.13;;;1.30;;
75858;SDS011;64504;51.308;8.620;2023-04-01T23:05:27;2.05;;;1.70;;
75858;SDS011;64504;51.308;8.620;2023-04-01T23:10:58;1.10;;;1.10;;
75858;SDS011;64504;51.308;8.620;2023-04-01T23:16:23;2.40;;;1.80;;
75858;SDS011;64504;51.308;8.620;2023-04-01T23:21:35;1.17;;;1.08;;
75858;SDS011;64504;51.308;8.620;2023-04-01T23:26:59;1.33;;;1.23;;
75858;SDS011;64504;51.308;8.620;2023-04-01T23:29:37;2.20;;;1.58;;
75858;SDS011;64504;51.308;8.620;2023-04-01T23:32:17;1.55;;;1.30;;
75858;SDS011;64504;51.308;8.620;2023-04-01T23:37:15;1.08;;;1.00;;
75858;SDS011;64504;51.308;8.620;2023-04-01T23:39:44;1.45;;;1.35;;
75858;SDS011;64504;51.308;8.620;2023-04-01T23:44:39;1.48;;;1.38;;
75858;SDS011;64504;51.308;8.620;2023-04-01T23:47:05;1.88;;;1.50;;
75858;SDS011;64504;51.308;8.620;2023-04-01T23:49:34;1.10;;;1.00;;
75858;SDS011;64504;51.308;8.620;2023-04-01T23:52:10;1.50;;;1.40;;
75858;SDS011;64504;51.308;8.620;2023-04-01T23:54:42;1.90;;;1.67;;
75858;SDS011;64504;51.308;8.620;2023-04-01T23:57:19;1.95;;;1.83;;
